^^
Grace C. Lehan Memorial Weather Station Historical Data
Daily Summary for August 25, 2019 Units:  Both    English   Metric
Daily Weekly Monthly Yearly Custom
  High: Low: Average:
Temperature: 73.2 °F /  22.9 °C 59.1 °F /  15.1 °C 66.5 °F /  19.2 °C
Dew Point: 59.63 °F /  15.4 °C 50.09 °F /  10.1 °C 56.5 °F /  13.6 °C
Humidity: 88% 53% 71%
Wind Speed: 10mph /  16.1km/h - 1.3mph /  2.1km/h
Wind Gust: 17mph /  27.4km/h - -
Wind- - ENE
Pressure: 30.29 in /  1025.6 hPa 30.21 in /  1022.9 hPa -
Precipitation: 0 in /  0 mm    
Historical Graphs
 
 
Tabular Data for August 25, 2019
Time Temperature Dew Point Pressure Wind Wind Speed Wind Gust Humidity Rainfall Rate (Hourly) solar
00:00 67 °F /  19.4 °C 57.3 °F /  14.1 °C 30.26in /  1024.6hPa ENE 1mph /  1.6km/h 1mph /  1.6km/h 71% 0in /  0mm 0.00 W/m2
00:05 66.9 °F /  19.4 °C 57.2 °F /  14 °C 30.26in /  1024.6hPa Calm   5mph /  8km/h 71% 0in /  0mm 0.00 W/m2
00:10 66.8 °F /  19.3 °C 57.11 °F /  14 °C 30.26in /  1024.6hPa Calm   5mph /  8km/h 71% 0in /  0mm 0.00 W/m2
00:15 66.7 °F /  19.3 °C 57.01 °F /  13.9 °C 30.27in /  1024.9hPa Calm   5mph /  8km/h 71% 0in /  0mm 0.00 W/m2
00:20 66.6 °F /  19.2 °C 56.91 °F /  13.8 °C 30.27in /  1024.9hPa East 1mph /  1.6km/h 5mph /  8km/h 71% 0in /  0mm 0.00 W/m2
00:25 66.5 °F /  19.2 °C 56.82 °F /  13.8 °C 30.27in /  1024.9hPa East 2mph /  3.2km/h 5mph /  8km/h 71% 0in /  0mm 0.00 W/m2
00:30 66.5 °F /  19.2 °C 56.82 °F /  13.8 °C 30.26in /  1024.6hPa Calm   5mph /  8km/h 71% 0in /  0mm 0.00 W/m2
00:35 66.4 °F /  19.1 °C 56.72 °F /  13.7 °C 30.27in /  1024.9hPa East 2mph /  3.2km/h 3mph /  4.8km/h 71% 0in /  0mm 0.00 W/m2
00:40 66.3 °F /  19.1 °C 56.63 °F /  13.7 °C 30.26in /  1024.6hPa Calm   3mph /  4.8km/h 71% 0in /  0mm 0.00 W/m2
00:45 66.2 °F /  19 °C 56.53 °F /  13.6 °C 30.26in /  1024.6hPa East 1mph /  1.6km/h 3mph /  4.8km/h 71% 0in /  0mm 0.00 W/m2
00:50 66.2 °F /  19 °C 56.92 °F /  13.8 °C 30.26in /  1024.6hPa Calm   3mph /  4.8km/h 72% 0in /  0mm 0.00 W/m2
00:55 66.1 °F /  18.9 °C 56.82 °F /  13.8 °C 30.26in /  1024.6hPa Calm   3mph /  4.8km/h 72% 0in /  0mm 0.00 W/m2
01:00 66 °F /  18.9 °C 56.73 °F /  13.7 °C 30.26in /  1024.6hPa NE 1mph /  1.6km/h 3mph /  4.8km/h 72% 0in /  0mm 0.00 W/m2
01:05 65.9 °F /  18.8 °C 56.63 °F /  13.7 °C 30.26in /  1024.6hPa NE 1mph /  1.6km/h 2mph /  3.2km/h 72% 0in /  0mm 0.00 W/m2
01:10 65.8 °F /  18.8 °C 56.92 °F /  13.8 °C 30.26in /  1024.6hPa Calm   5mph /  8km/h 73% 0in /  0mm 0.00 W/m2
01:15 65.7 °F /  18.7 °C 56.82 °F /  13.8 °C 30.26in /  1024.6hPa Calm   5mph /  8km/h 73% 0in /  0mm 0.00 W/m2
01:20 65.6 °F /  18.7 °C 56.72 °F /  13.7 °C 30.26in /  1024.6hPa Calm   5mph /  8km/h 73% 0in /  0mm 0.00 W/m2
01:25 65.5 °F /  18.6 °C 56.63 °F /  13.7 °C 30.26in /  1024.6hPa Calm   5mph /  8km/h 73% 0in /  0mm 0.00 W/m2
01:30 65.3 °F /  18.5 °C 56.81 °F /  13.8 °C 30.26in /  1024.6hPa Calm   5mph /  8km/h 74% 0in /  0mm 0.00 W/m2
01:35 65.2 °F /  18.4 °C 56.71 °F /  13.7 °C 30.26in /  1024.6hPa Calm   3mph /  4.8km/h 74% 0in /  0mm 0.00 W/m2
01:40 65.1 °F /  18.4 °C 56.62 °F /  13.7 °C 30.26in /  1024.6hPa Calm   3mph /  4.8km/h 74% 0in /  0mm 0.00 W/m2
01:45 65 °F /  18.3 °C 56.89 °F /  13.8 °C 30.26in /  1024.6hPa Calm   3mph /  4.8km/h 75% 0in /  0mm 0.00 W/m2
01:50 64.9 °F /  18.3 °C 56.8 °F /  13.8 °C 30.26in /  1024.6hPa Calm   3mph /  4.8km/h 75% 0in /  0mm 0.00 W/m2
01:55 64.7 °F /  18.2 °C 56.6 °F /  13.7 °C 30.26in /  1024.6hPa Calm   3mph /  4.8km/h 75% 0in /  0mm 0.00 W/m2
02:00 64.6 °F /  18.1 °C 56.87 °F /  13.8 °C 30.26in /  1024.6hPa Calm   3mph /  4.8km/h 76% 0in /  0mm 0.00 W/m2
02:05 64.5 °F /  18.1 °C 56.78 °F /  13.8 °C 30.25in /  1024.3hPa Calm     76% 0in /  0mm 0.00 W/m2
02:10 64.3 °F /  17.9 °C 56.58 °F /  13.7 °C 30.25in /  1024.3hPa Calm     76% 0in /  0mm 0.00 W/m2
02:15 64.1 °F /  17.8 °C 56.75 °F /  13.8 °C 30.25in /  1024.3hPa Calm     77% 0in /  0mm 0.00 W/m2
02:20 64 °F /  17.8 °C 56.65 °F /  13.7 °C 30.25in /  1024.3hPa Calm     77% 0in /  0mm 0.00 W/m2
02:25 63.8 °F /  17.7 °C 56.46 °F /  13.6 °C 30.25in /  1024.3hPa Calm     77% 0in /  0mm 0.00 W/m2
02:30 63.6 °F /  17.6 °C 56.62 °F /  13.7 °C 30.25in /  1024.3hPa Calm     78% 0in /  0mm 0.00 W/m2
02:35 63.5 °F /  17.5 °C 56.88 °F /  13.8 °C 30.25in /  1024.3hPa Calm     79% 0in /  0mm 0.00 W/m2
02:40 63.3 °F /  17.4 °C 56.68 °F /  13.7 °C 30.25in /  1024.3hPa Calm     79% 0in /  0mm 0.00 W/m2
02:45 63.1 °F /  17.3 °C 56.49 °F /  13.6 °C 30.25in /  1024.3hPa Calm     79% 0in /  0mm 0.00 W/m2
02:50 63 °F /  17.2 °C 56.74 °F /  13.7 °C 30.25in /  1024.3hPa Calm     80% 0in /  0mm 0.00 W/m2
02:55 62.8 °F /  17.1 °C 56.55 °F /  13.6 °C 30.25in /  1024.3hPa Calm     80% 0in /  0mm 0.00 W/m2
03:00 62.6 °F /  17 °C 56.35 °F /  13.5 °C 30.25in /  1024.3hPa Calm     80% 0in /  0mm 0.00 W/m2
03:05 62.5 °F /  16.9 °C 56.6 °F /  13.7 °C 30.25in /  1024.3hPa Calm     81% 0in /  0mm 0.00 W/m2
03:10 62.4 °F /  16.9 °C 56.5 °F /  13.6 °C 30.25in /  1024.3hPa Calm     81% 0in /  0mm 0.00 W/m2
03:15 62.2 °F /  16.8 °C 56.64 °F /  13.7 °C 30.25in /  1024.3hPa Calm     82% 0in /  0mm 0.00 W/m2
03:20 62.1 °F /  16.7 °C 56.55 °F /  13.6 °C 30.25in /  1024.3hPa Calm     82% 0in /  0mm 0.00 W/m2
03:25 62 °F /  16.7 °C 56.45 °F /  13.6 °C 30.25in /  1024.3hPa Calm     82% 0in /  0mm 0.00 W/m2
03:30 61.8 °F /  16.6 °C 56.59 °F /  13.7 °C 30.25in /  1024.3hPa Calm     83% 0in /  0mm 0.00 W/m2
03:35 61.7 °F /  16.5 °C 56.49 °F /  13.6 °C 30.25in /  1024.3hPa Calm     83% 0in /  0mm 0.00 W/m2
03:40 61.6 °F /  16.4 °C 56.39 °F /  13.6 °C 30.25in /  1024.3hPa Calm     83% 0in /  0mm 0.00 W/m2
03:45 61.5 °F /  16.4 °C 56.63 °F /  13.7 °C 30.26in /  1024.6hPa Calm     84% 0in /  0mm 0.00 W/m2
03:50 61.3 °F /  16.3 °C 56.43 °F /  13.6 °C 30.25in /  1024.3hPa Calm     84% 0in /  0mm 0.00 W/m2
03:55 61.2 °F /  16.2 °C 56.33 °F /  13.5 °C 30.26in /  1024.6hPa Calm     84% 0in /  0mm 0.00 W/m2
04:00 61.1 °F /  16.2 °C 56.56 °F /  13.6 °C 30.26in /  1024.6hPa Calm     85% 0in /  0mm 0.00 W/m2
04:05 61 °F /  16.1 °C 56.46 °F /  13.6 °C 30.26in /  1024.6hPa Calm     85% 0in /  0mm 0.00 W/m2
04:10 60.9 °F /  16.1 °C 56.37 °F /  13.5 °C 30.26in /  1024.6hPa Calm     85% 0in /  0mm 0.00 W/m2
04:15 60.8 °F /  16 °C 56.27 °F /  13.5 °C 30.26in /  1024.6hPa Calm     85% 0in /  0mm 0.00 W/m2
04:20 60.6 °F /  15.9 °C 56.4 °F /  13.6 °C 30.26in /  1024.6hPa Calm     86% 0in /  0mm 0.00 W/m2
04:25 60.6 °F /  15.9 °C 56.4 °F /  13.6 °C 30.26in /  1024.6hPa Calm     86% 0in /  0mm 0.00 W/m2
04:30 60.5 °F /  15.8 °C 56.62 °F /  13.7 °C 30.26in /  1024.6hPa Calm   2mph /  3.2km/h 87% 0in /  0mm 0.00 W/m2
04:35 60.5 °F /  15.8 °C 56.62 °F /  13.7 °C 30.26in /  1024.6hPa Calm     87% 0in /  0mm 0.00 W/m2
04:40 60.5 °F /  15.8 °C 56.62 °F /  13.7 °C 30.26in /  1024.6hPa Calm     87% 0in /  0mm 0.00 W/m2
04:45 60.6 °F /  15.9 °C 57.03 °F /  13.9 °C 30.25in /  1024.3hPa Calm     88% 0in /  0mm 0.00 W/m2
04:50 60.6 °F /  15.9 °C 57.03 °F /  13.9 °C 30.26in /  1024.6hPa Calm     88% 0in /  0mm 0.00 W/m2
04:55 60.7 °F /  15.9 °C 57.13 °F /  14 °C 30.25in /  1024.3hPa Calm     88% 0in /  0mm 0.00 W/m2
05:00 60.7 °F /  15.9 °C 57.13 °F /  14 °C 30.25in /  1024.3hPa Calm     88% 0in /  0mm 0.00 W/m2
05:05 60.7 °F /  15.9 °C 57.13 °F /  14 °C 30.25in /  1024.3hPa Calm     88% 0in /  0mm 0.00 W/m2
05:10 60.7 °F /  15.9 °C 57.13 °F /  14 °C 30.26in /  1024.6hPa Calm     88% 0in /  0mm 0.00 W/m2
05:15 60.8 °F /  16 °C 57.23 °F /  14 °C 30.26in /  1024.6hPa Calm   1mph /  1.6km/h 88% 0in /  0mm 0.00 W/m2
05:20 60.8 °F /  16 °C 57.23 °F /  14 °C 30.26in /  1024.6hPa Calm   1mph /  1.6km/h 88% 0in /  0mm 0.00 W/m2
05:25 60.7 °F /  15.9 °C 57.13 °F /  14 °C 30.25in /  1024.3hPa Calm   1mph /  1.6km/h 88% 0in /  0mm 0.00 W/m2
05:30 60.7 °F /  15.9 °C 57.13 °F /  14 °C 30.25in /  1024.3hPa Calm   1mph /  1.6km/h 88% 0in /  0mm 0.00 W/m2
05:35 60.7 °F /  15.9 °C 57.13 °F /  14 °C 30.25in /  1024.3hPa Calm   3mph /  4.8km/h 88% 0in /  0mm 0.00 W/m2
05:40 60.7 °F /  15.9 °C 57.13 °F /  14 °C 30.25in /  1024.3hPa Calm   3mph /  4.8km/h 88% 0in /  0mm 0.00 W/m2
05:45 60.7 °F /  15.9 °C 57.13 °F /  14 °C 30.25in /  1024.3hPa Calm   3mph /  4.8km/h 88% 0in /  0mm 0.00 W/m2
05:50 60.7 °F /  15.9 °C 57.13 °F /  14 °C 30.26in /  1024.6hPa Calm   3mph /  4.8km/h 88% 0in /  0mm 0.00 W/m2
05:55 60.8 °F /  16 °C 57.23 °F /  14 °C 30.26in /  1024.6hPa Calm   3mph /  4.8km/h 88% 0in /  0mm 0.00 W/m2
06:00 60.8 °F /  16 °C 57.23 °F /  14 °C 30.26in /  1024.6hPa Calm   4mph /  6.4km/h 88% 0in /  0mm 0.00 W/m2
06:05 60.9 °F /  16.1 °C 57.33 °F /  14.1 °C 30.26in /  1024.6hPa Calm   2mph /  3.2km/h 88% 0in /  0mm 0.00 W/m2
06:10 60.9 °F /  16.1 °C 57.33 °F /  14.1 °C 30.26in /  1024.6hPa Calm   2mph /  3.2km/h 88% 0in /  0mm 0.00 W/m2
06:15 61 °F /  16.1 °C 57.43 °F /  14.1 °C 30.26in /  1024.6hPa Calm   2mph /  3.2km/h 88% 0in /  0mm 0.00 W/m2
06:20 61 °F /  16.1 °C 57.43 °F /  14.1 °C 30.26in /  1024.6hPa Calm   2mph /  3.2km/h 88% 0in /  0mm 5.00 W/m2
06:25 61.1 °F /  16.2 °C 57.52 °F /  14.2 °C 30.26in /  1024.6hPa Calm   5mph /  8km/h 88% 0in /  0mm 9.00 W/m2
06:30 61.1 °F /  16.2 °C 57.52 °F /  14.2 °C 30.26in /  1024.6hPa Calm   5mph /  8km/h 88% 0in /  0mm 14.00 W/m2
06:35 61.2 °F /  16.2 °C 57.31 °F /  14.1 °C 30.26in /  1024.6hPa Calm     87% 0in /  0mm 18.00 W/m2
06:40 61.3 °F /  16.3 °C 57.4 °F /  14.1 °C 30.26in /  1024.6hPa Calm     87% 0in /  0mm 25.00 W/m2
06:45 61.3 °F /  16.3 °C 57.72 °F /  14.3 °C 30.26in /  1024.6hPa Calm   2mph /  3.2km/h 88% 0in /  0mm 26.00 W/m2
06:50 61.4 °F /  16.3 °C 57.5 °F /  14.2 °C 30.26in /  1024.6hPa Calm   2mph /  3.2km/h 87% 0in /  0mm 35.00 W/m2
06:55 61.5 °F /  16.4 °C 57.6 °F /  14.2 °C 30.27in /  1024.9hPa Calm   2mph /  3.2km/h 87% 0in /  0mm 74.00 W/m2
07:00 61.8 °F /  16.6 °C 57.9 °F /  14.4 °C 30.27in /  1024.9hPa Calm   2mph /  3.2km/h 87% 0in /  0mm 83.00 W/m2
07:05 62.2 °F /  16.8 °C 58.29 °F /  14.6 °C 30.27in /  1024.9hPa Calm     87% 0in /  0mm 72.00 W/m2
07:10 62.7 °F /  17.1 °C 58.46 °F /  14.7 °C 30.27in /  1024.9hPa Calm   3mph /  4.8km/h 86% 0in /  0mm 86.00 W/m2
07:15 63.2 °F /  17.3 °C 58.62 °F /  14.8 °C 30.27in /  1024.9hPa Calm   4mph /  6.4km/h 85% 0in /  0mm 69.00 W/m2
07:20 63.6 °F /  17.6 °C 58.68 °F /  14.8 °C 30.27in /  1024.9hPa Calm   4mph /  6.4km/h 84% 0in /  0mm 70.00 W/m2
07:25 63.9 °F /  17.7 °C 58.64 °F /  14.8 °C 30.28in /  1025.3hPa Calm   4mph /  6.4km/h 83% 0in /  0mm 79.00 W/m2
07:30 64 °F /  17.8 °C 58.4 °F /  14.7 °C 30.27in /  1024.9hPa Calm   5mph /  8km/h 82% 0in /  0mm 102.00 W/m2
07:35 64 °F /  17.8 °C 58.4 °F /  14.7 °C 30.28in /  1025.3hPa Calm   3mph /  4.8km/h 82% 0in /  0mm 134.00 W/m2
07:40 64.1 °F /  17.8 °C 58.5 °F /  14.7 °C 30.28in /  1025.3hPa ENE 3mph /  4.8km/h 5mph /  8km/h 82% 0in /  0mm 132.00 W/m2
07:45 64.3 °F /  17.9 °C 58.7 °F /  14.8 °C 30.28in /  1025.3hPa ENE 2mph /  3.2km/h 10mph /  16.1km/h 82% 0in /  0mm 128.00 W/m2
07:50 64.4 °F /  18 °C 58.79 °F /  14.9 °C 30.28in /  1025.3hPa Calm   10mph /  16.1km/h 82% 0in /  0mm 97.00 W/m2
07:55 64.5 °F /  18.1 °C 58.55 °F /  14.8 °C 30.28in /  1025.3hPa NE 1mph /  1.6km/h 10mph /  16.1km/h 81% 0in /  0mm 97.00 W/m2
08:00 64.5 °F /  18.1 °C 58.55 °F /  14.8 °C 30.28in /  1025.3hPa ENE 3mph /  4.8km/h 10mph /  16.1km/h 81% 0in /  0mm 91.00 W/m2
08:05 64.5 °F /  18.1 °C 58.89 °F /  14.9 °C 30.28in /  1025.3hPa Calm   12mph /  19.3km/h 82% 0in /  0mm 81.00 W/m2
08:10 64.6 °F /  18.1 °C 58.99 °F /  15 °C 30.28in /  1025.3hPa Calm   12mph /  19.3km/h 82% 0in /  0mm 76.00 W/m2
08:15 64.6 °F /  18.1 °C 58.65 °F /  14.8 °C 30.28in /  1025.3hPa ENE 2mph /  3.2km/h 12mph /  19.3km/h 81% 0in /  0mm 54.00 W/m2
08:20 64.6 °F /  18.1 °C 58.65 °F /  14.8 °C 30.28in /  1025.3hPa ENE 1mph /  1.6km/h 12mph /  19.3km/h 81% 0in /  0mm 46.00 W/m2
08:25 64.5 °F /  18.1 °C 58.89 °F /  14.9 °C 30.28in /  1025.3hPa Calm   12mph /  19.3km/h 82% 0in /  0mm 51.00 W/m2
08:30 64.5 °F /  18.1 °C 58.89 °F /  14.9 °C 30.28in /  1025.3hPa ENE 3mph /  4.8km/h 12mph /  19.3km/h 82% 0in /  0mm 63.00 W/m2
08:35 64.6 °F /  18.1 °C 58.99 °F /  15 °C 30.28in /  1025.3hPa Calm   6mph /  9.7km/h 82% 0in /  0mm 79.00 W/m2
08:40 64.8 °F /  18.2 °C 58.84 °F /  14.9 °C 30.28in /  1025.3hPa ENE 6mph /  9.7km/h 9mph /  14.5km/h 81% 0in /  0mm 86.00 W/m2
08:45 65 °F /  18.3 °C 58.69 °F /  14.8 °C 30.28in /  1025.3hPa ENE 1mph /  1.6km/h 11mph /  17.7km/h 80% 0in /  0mm 84.00 W/m2
08:50 65.4 °F /  18.6 °C 59.08 °F /  15 °C 30.28in /  1025.3hPa Calm   11mph /  17.7km/h 80% 0in /  0mm 104.00 W/m2
08:55 65.7 °F /  18.7 °C 59.02 °F /  15 °C 30.29in /  1025.6hPa NE 1mph /  1.6km/h 11mph /  17.7km/h 79% 0in /  0mm 62.00 W/m2
09:00 66 °F /  18.9 °C 58.95 °F /  15 °C 30.29in /  1025.6hPa NE 2mph /  3.2km/h 12mph /  19.3km/h 78% 0in /  0mm 113.00 W/m2
09:05 66.2 °F /  19 °C 59.15 °F /  15.1 °C 30.29in /  1025.6hPa ENE 4mph /  6.4km/h 10mph /  16.1km/h 78% 0in /  0mm 91.00 W/m2
09:10 66.1 °F /  18.9 °C 58.69 °F /  14.8 °C 30.29in /  1025.6hPa East 4mph /  6.4km/h 10mph /  16.1km/h 77% 0in /  0mm 88.00 W/m2
09:15 66.1 °F /  18.9 °C 59.05 °F /  15 °C 30.29in /  1025.6hPa East 3mph /  4.8km/h 10mph /  16.1km/h 78% 0in /  0mm 111.00 W/m2
09:20 66.2 °F /  19 °C 59.15 °F /  15.1 °C 30.29in /  1025.6hPa Calm   11mph /  17.7km/h 78% 0in /  0mm 95.00 W/m2
09:25 66.4 °F /  19.1 °C 59.34 °F /  15.2 °C 30.29in /  1025.6hPa Calm   11mph /  17.7km/h 78% 0in /  0mm 123.00 W/m2
09:30 66.7 °F /  19.3 °C 59.63 °F /  15.4 °C 30.28in /  1025.3hPa Calm   11mph /  17.7km/h 78% 0in /  0mm 120.00 W/m2
09:35 67 °F /  19.4 °C 59.56 °F /  15.3 °C 30.28in /  1025.3hPa Calm   9mph /  14.5km/h 77% 0in /  0mm 118.00 W/m2
09:40 67.2 °F /  19.6 °C 59.39 °F /  15.2 °C 30.28in /  1025.3hPa ENE 7mph /  11.3km/h 13mph /  20.9km/h 76% 0in /  0mm 93.00 W/m2
09:45 67 °F /  19.4 °C 58.82 °F /  14.9 °C 30.28in /  1025.3hPa ENE 1mph /  1.6km/h 13mph /  20.9km/h 75% 0in /  0mm 149.00 W/m2
09:50 67 °F /  19.4 °C 58.82 °F /  14.9 °C 30.28in /  1025.3hPa SE 3mph /  4.8km/h 13mph /  20.9km/h 75% 0in /  0mm 91.00 W/m2
09:55 67.1 °F /  19.5 °C 58.92 °F /  15 °C 30.28in /  1025.3hPa East 3mph /  4.8km/h 13mph /  20.9km/h 75% 0in /  0mm 163.00 W/m2
10:00 67.4 °F /  19.7 °C 58.46 °F /  14.7 °C 30.28in /  1025.3hPa ENE 5mph /  8km/h 13mph /  20.9km/h 73% 0in /  0mm 197.00 W/m2
10:05 67.9 °F /  19.9 °C 59.32 °F /  15.2 °C 30.28in /  1025.3hPa Calm   9mph /  14.5km/h 74% 0in /  0mm 102.00 W/m2
10:10 68.1 °F /  20.1 °C 59.13 °F /  15.1 °C 30.28in /  1025.3hPa NE 6mph /  9.7km/h 13mph /  20.9km/h 73% 0in /  0mm 60.00 W/m2
10:15 67.9 °F /  19.9 °C 57.37 °F /  14.1 °C 30.28in /  1025.3hPa NE 5mph /  8km/h 15mph /  24.1km/h 69% 0in /  0mm 246.00 W/m2
10:20 67.9 °F /  19.9 °C 57.37 °F /  14.1 °C 30.28in /  1025.3hPa ENE 1mph /  1.6km/h 15mph /  24.1km/h 69% 0in /  0mm 90.00 W/m2
10:25 68 °F /  20 °C 57.86 °F /  14.4 °C 30.27in /  1024.9hPa ENE 4mph /  6.4km/h 15mph /  24.1km/h 70% 0in /  0mm 84.00 W/m2
10:30 68.3 °F /  20.2 °C 57.75 °F /  14.3 °C 30.28in /  1025.3hPa Calm   15mph /  24.1km/h 69% 0in /  0mm 104.00 W/m2
10:35 68.5 °F /  20.3 °C 57.53 °F /  14.2 °C 30.27in /  1024.9hPa ENE 2mph /  3.2km/h 10mph /  16.1km/h 68% 0in /  0mm 116.00 W/m2
10:40 68.7 °F /  20.4 °C 57.72 °F /  14.3 °C 30.27in /  1024.9hPa East 3mph /  4.8km/h 10mph /  16.1km/h 68% 0in /  0mm 130.00 W/m2
10:45 68.9 °F /  20.5 °C 57.5 °F /  14.2 °C 30.27in /  1024.9hPa ENE 4mph /  6.4km/h 17mph /  27.4km/h 67% 0in /  0mm 155.00 W/m2
10:50 69.3 °F /  20.7 °C 57.47 °F /  14.2 °C 30.28in /  1025.3hPa East 1mph /  1.6km/h 17mph /  27.4km/h 66% 0in /  0mm 156.00 W/m2
10:55 69.6 °F /  20.9 °C 56.9 °F /  13.8 °C 30.27in /  1024.9hPa ENE 2mph /  3.2km/h 17mph /  27.4km/h 64% 0in /  0mm 165.00 W/m2
11:00 69.6 °F /  20.9 °C 56.9 °F /  13.8 °C 30.27in /  1024.9hPa East 3mph /  4.8km/h 17mph /  27.4km/h 64% 0in /  0mm 95.00 W/m2
11:05 69.6 °F /  20.9 °C 56.9 °F /  13.8 °C 30.27in /  1024.9hPa East 4mph /  6.4km/h 13mph /  20.9km/h 64% 0in /  0mm 125.00 W/m2
11:10 69.9 °F /  21.1 °C 57.61 °F /  14.2 °C 30.27in /  1024.9hPa East 3mph /  4.8km/h 13mph /  20.9km/h 65% 0in /  0mm 199.00 W/m2
11:15 70.2 °F /  21.2 °C 57.03 °F /  13.9 °C 30.27in /  1024.9hPa North 4mph /  6.4km/h 13mph /  20.9km/h 63% 0in /  0mm 232.00 W/m2
11:20 70.3 °F /  21.3 °C 55.77 °F /  13.2 °C 30.28in /  1025.3hPa ESE 3mph /  4.8km/h 13mph /  20.9km/h 60% 0in /  0mm 148.00 W/m2
11:25 70.1 °F /  21.2 °C 55.59 °F /  13.1 °C 30.27in /  1024.9hPa NE 5mph /  8km/h 13mph /  20.9km/h 60% 0in /  0mm 86.00 W/m2
11:30 69.9 °F /  21.1 °C 55.4 °F /  13 °C 30.27in /  1024.9hPa East 6mph /  9.7km/h 14mph /  22.5km/h 60% 0in /  0mm 833.00 W/m2
11:35 70.1 °F /  21.2 °C 55.12 °F /  12.8 °C 30.27in /  1024.9hPa East 1mph /  1.6km/h 10mph /  16.1km/h 59% 0in /  0mm 297.00 W/m2
11:40 70.5 °F /  21.4 °C 55.96 °F /  13.3 °C 30.27in /  1024.9hPa East 2mph /  3.2km/h 10mph /  16.1km/h 60% 0in /  0mm 179.00 W/m2
11:45 70.9 °F /  21.6 °C 56.34 °F /  13.5 °C 30.27in /  1024.9hPa NE 4mph /  6.4km/h 11mph /  17.7km/h 60% 0in /  0mm 244.00 W/m2
11:50 71.3 °F /  21.8 °C 57.17 °F /  14 °C 30.27in /  1024.9hPa ENE 3mph /  4.8km/h 11mph /  17.7km/h 61% 0in /  0mm 591.00 W/m2
11:55 71.6 °F /  22 °C 57 °F /  13.9 °C 30.27in /  1024.9hPa NE 10mph /  16.1km/h 11mph /  17.7km/h 60% 0in /  0mm 311.00 W/m2
12:00 71.4 °F /  21.9 °C 56.34 °F /  13.5 °C 30.27in /  1024.9hPa Calm     59% 0in /  0mm 202.00 W/m2
12:05 71.3 °F /  21.8 °C 55.78 °F /  13.2 °C 30.27in /  1024.9hPa ENE 6mph /  9.7km/h 12mph /  19.3km/h 58% 0in /  0mm 944.00 W/m2
12:10 71.5 °F /  21.9 °C 55.96 °F /  13.3 °C 30.27in /  1024.9hPa NE 2mph /  3.2km/h 13mph /  20.9km/h 58% 0in /  0mm 158.00 W/m2
12:15 71.6 °F /  22 °C 56.06 °F /  13.4 °C 30.27in /  1024.9hPa Calm   13mph /  20.9km/h 58% 0in /  0mm 185.00 W/m2
12:20 71.5 °F /  21.9 °C 55.96 °F /  13.3 °C 30.27in /  1024.9hPa Calm   13mph /  20.9km/h 58% 0in /  0mm 149.00 W/m2
12:25 71.6 °F /  22 °C 56.53 °F /  13.6 °C 30.27in /  1024.9hPa Calm   13mph /  20.9km/h 59% 0in /  0mm 262.00 W/m2
12:30 71.7 °F /  22.1 °C 55.67 °F /  13.2 °C 30.26in /  1024.6hPa ENE 1mph /  1.6km/h 13mph /  20.9km/h 57% 0in /  0mm 262.00 W/m2
12:35 71.7 °F /  22.1 °C 55.67 °F /  13.2 °C 30.26in /  1024.6hPa East 3mph /  4.8km/h 9mph /  14.5km/h 57% 0in /  0mm 297.00 W/m2
12:40 71.7 °F /  22.1 °C 55.18 °F /  12.9 °C 30.26in /  1024.6hPa ENE 1mph /  1.6km/h 10mph /  16.1km/h 56% 0in /  0mm 853.00 W/m2
12:45 72 °F /  22.2 °C 55.46 °F /  13 °C 30.26in /  1024.6hPa NE 2mph /  3.2km/h 10mph /  16.1km/h 56% 0in /  0mm 668.00 W/m2
12:50 72.1 °F /  22.3 °C 55.56 °F /  13.1 °C 30.26in /  1024.6hPa East 2mph /  3.2km/h 10mph /  16.1km/h 56% 0in /  0mm 914.00 W/m2
12:55 72.1 °F /  22.3 °C 55.56 °F /  13.1 °C 30.26in /  1024.6hPa NE 1mph /  1.6km/h 10mph /  16.1km/h 56% 0in /  0mm 116.00 W/m2
13:00 71.9 °F /  22.2 °C 54.87 °F /  12.7 °C 30.26in /  1024.6hPa East 5mph /  8km/h 11mph /  17.7km/h 55% 0in /  0mm 197.00 W/m2
13:05 71.7 °F /  22.1 °C 54.69 °F /  12.6 °C 30.26in /  1024.6hPa ENE 5mph /  8km/h 10mph /  16.1km/h 55% 0in /  0mm 241.00 W/m2
13:10 71.9 °F /  22.2 °C 55.86 °F /  13.3 °C 30.26in /  1024.6hPa NE 2mph /  3.2km/h 10mph /  16.1km/h 57% 0in /  0mm 489.00 W/m2
13:15 72.2 °F /  22.3 °C 55.15 °F /  12.9 °C 30.26in /  1024.6hPa ENE 3mph /  4.8km/h 10mph /  16.1km/h 55% 0in /  0mm 283.00 W/m2
13:20 72.4 °F /  22.4 °C 54.84 °F /  12.7 °C 30.25in /  1024.3hPa Calm   11mph /  17.7km/h 54% 0in /  0mm 406.00 W/m2
13:25 72.7 °F /  22.6 °C 55.62 °F /  13.1 °C 30.25in /  1024.3hPa ENE 3mph /  4.8km/h 14mph /  22.5km/h 55% 0in /  0mm 415.00 W/m2
13:30 72.8 °F /  22.7 °C 54.69 °F /  12.6 °C 30.25in /  1024.3hPa NE 1mph /  1.6km/h 14mph /  22.5km/h 53% 0in /  0mm 246.00 W/m2
13:35 72.6 °F /  22.6 °C 55.02 °F /  12.8 °C 30.25in /  1024.3hPa Calm   13mph /  20.9km/h 54% 0in /  0mm 232.00 W/m2
13:40 72.5 °F /  22.5 °C 54.42 °F /  12.5 °C 30.25in /  1024.3hPa Calm   13mph /  20.9km/h 53% 0in /  0mm 186.00 W/m2
13:45 72.2 °F /  22.3 °C 55.15 °F /  12.9 °C 30.25in /  1024.3hPa NE 4mph /  6.4km/h 13mph /  20.9km/h 55% 0in /  0mm 195.00 W/m2
13:50 72 °F /  22.2 °C 55.46 °F /  13 °C 30.25in /  1024.3hPa NE 1mph /  1.6km/h 13mph /  20.9km/h 56% 0in /  0mm 213.00 W/m2
13:55 71.9 °F /  22.2 °C 55.86 °F /  13.3 °C 30.25in /  1024.3hPa ENE 3mph /  4.8km/h 13mph /  20.9km/h 57% 0in /  0mm 213.00 W/m2
14:00 71.8 °F /  22.1 °C 55.76 °F /  13.2 °C 30.25in /  1024.3hPa ENE 1mph /  1.6km/h 13mph /  20.9km/h 57% 0in /  0mm 190.00 W/m2
14:05 71.8 °F /  22.1 °C 56.72 °F /  13.7 °C 30.25in /  1024.3hPa Calm   6mph /  9.7km/h 59% 0in /  0mm 148.00 W/m2
14:10 71.7 °F /  22.1 °C 57.09 °F /  13.9 °C 30.25in /  1024.3hPa NNE 4mph /  6.4km/h 9mph /  14.5km/h 60% 0in /  0mm 118.00 W/m2
14:15 71.5 °F /  21.9 °C 56.44 °F /  13.6 °C 30.25in /  1024.3hPa ENE 1mph /  1.6km/h 10mph /  16.1km/h 59% 0in /  0mm 118.00 W/m2
14:20 71.2 °F /  21.8 °C 57.08 °F /  13.9 °C 30.25in /  1024.3hPa Calm   10mph /  16.1km/h 61% 0in /  0mm 125.00 W/m2
14:25 71 °F /  21.7 °C 57.34 °F /  14.1 °C 30.25in /  1024.3hPa Calm   10mph /  16.1km/h 62% 0in /  0mm 146.00 W/m2
14:30 70.9 °F /  21.6 °C 57.25 °F /  14 °C 30.25in /  1024.3hPa ENE 4mph /  6.4km/h 10mph /  16.1km/h 62% 0in /  0mm 109.00 W/m2
14:35 70.8 °F /  21.6 °C 57.15 °F /  14 °C 30.25in /  1024.3hPa Calm   4mph /  6.4km/h 62% 0in /  0mm 74.00 W/m2
14:40 70.7 °F /  21.5 °C 57.5 °F /  14.2 °C 30.25in /  1024.3hPa Calm   4mph /  6.4km/h 63% 0in /  0mm 81.00 W/m2
14:45 70.6 °F /  21.4 °C 57.84 °F /  14.4 °C 30.25in /  1024.3hPa East 1mph /  1.6km/h 12mph /  19.3km/h 64% 0in /  0mm 83.00 W/m2
14:50 70.6 °F /  21.4 °C 57.84 °F /  14.4 °C 30.24in /  1023.9hPa ENE 4mph /  6.4km/h 12mph /  19.3km/h 64% 0in /  0mm 155.00 W/m2
14:55 70.7 °F /  21.5 °C 58.37 °F /  14.7 °C 30.24in /  1023.9hPa East 1mph /  1.6km/h 12mph /  19.3km/h 65% 0in /  0mm 272.00 W/m2
15:00 71 °F /  21.7 °C 58.22 °F /  14.6 °C 30.24in /  1023.9hPa Calm   12mph /  19.3km/h 64% 0in /  0mm 475.00 W/m2
15:05 71.4 °F /  21.9 °C 57.72 °F /  14.3 °C 30.24in /  1023.9hPa East 4mph /  6.4km/h 10mph /  16.1km/h 62% 0in /  0mm 559.00 W/m2
15:10 72 °F /  22.2 °C 57.83 °F /  14.4 °C 30.24in /  1023.9hPa East 3mph /  4.8km/h 11mph /  17.7km/h 61% 0in /  0mm 860.00 W/m2
15:15 72.3 °F /  22.4 °C 58.57 °F /  14.8 °C 30.24in /  1023.9hPa ENE 2mph /  3.2km/h 11mph /  17.7km/h 62% 0in /  0mm 526.00 W/m2
15:20 72.5 °F /  22.5 °C 58.3 °F /  14.6 °C 30.24in /  1023.9hPa NNE 7mph /  11.3km/h 11mph /  17.7km/h 61% 0in /  0mm 824.00 W/m2
15:25 72.9 °F /  22.7 °C 58.22 °F /  14.6 °C 30.24in /  1023.9hPa East 4mph /  6.4km/h 11mph /  17.7km/h 60% 0in /  0mm 909.00 W/m2
15:30 73.2 °F /  22.9 °C 58.5 °F /  14.7 °C 30.24in /  1023.9hPa NE 10mph /  16.1km/h 12mph /  19.3km/h 60% 0in /  0mm 772.00 W/m2
15:35 73.1 °F /  22.8 °C 57.94 °F /  14.4 °C 30.24in /  1023.9hPa NE 4mph /  6.4km/h 11mph /  17.7km/h 59% 0in /  0mm 171.00 W/m2
15:40 72.7 °F /  22.6 °C 58.03 °F /  14.5 °C 30.24in /  1023.9hPa East 5mph /  8km/h 11mph /  17.7km/h 60% 0in /  0mm 141.00 W/m2
15:45 72.2 °F /  22.3 °C 58.02 °F /  14.5 °C 30.24in /  1023.9hPa NE 2mph /  3.2km/h 11mph /  17.7km/h 61% 0in /  0mm 130.00 W/m2
15:50 72 °F /  22.2 °C 58.28 °F /  14.6 °C 30.24in /  1023.9hPa Calm   11mph /  17.7km/h 62% 0in /  0mm 766.00 W/m2
15:55 72.3 °F /  22.4 °C 58.11 °F /  14.5 °C 30.24in /  1023.9hPa Calm   11mph /  17.7km/h 61% 0in /  0mm 113.00 W/m2
16:00 72.4 °F /  22.4 °C 58.21 °F /  14.6 °C 30.24in /  1023.9hPa ENE 3mph /  4.8km/h 3mph /  4.8km/h 61% 0in /  0mm 123.00 W/m2
16:05 72.1 °F /  22.3 °C 58.38 °F /  14.7 °C 30.23in /  1023.6hPa East 1mph /  1.6km/h 11mph /  17.7km/h 62% 0in /  0mm 125.00 W/m2
16:10 71.7 °F /  22.1 °C 58 °F /  14.4 °C 30.23in /  1023.6hPa ESE 4mph /  6.4km/h 11mph /  17.7km/h 62% 0in /  0mm 132.00 W/m2
16:15 71.5 °F /  21.9 °C 57.81 °F /  14.3 °C 30.23in /  1023.6hPa East 1mph /  1.6km/h 11mph /  17.7km/h 62% 0in /  0mm 151.00 W/m2
16:20 71.4 °F /  21.9 °C 57.72 °F /  14.3 °C 30.23in /  1023.6hPa Calm   11mph /  17.7km/h 62% 0in /  0mm 128.00 W/m2
16:25 71.3 °F /  21.8 °C 57.62 °F /  14.2 °C 30.23in /  1023.6hPa NE 2mph /  3.2km/h 13mph /  20.9km/h 62% 0in /  0mm 84.00 W/m2
16:30 71 °F /  21.7 °C 57.34 °F /  14.1 °C 30.23in /  1023.6hPa ENE 2mph /  3.2km/h 13mph /  20.9km/h 62% 0in /  0mm 65.00 W/m2
16:35 70.7 °F /  21.5 °C 57.5 °F /  14.2 °C 30.23in /  1023.6hPa Calm   5mph /  8km/h 63% 0in /  0mm 56.00 W/m2
16:40 70.6 °F /  21.4 °C 57.84 °F /  14.4 °C 30.22in /  1023.2hPa ENE 3mph /  4.8km/h 5mph /  8km/h 64% 0in /  0mm 54.00 W/m2
16:45 70.7 °F /  21.5 °C 57.5 °F /  14.2 °C 30.22in /  1023.2hPa Calm   6mph /  9.7km/h 63% 0in /  0mm 51.00 W/m2
16:50 70.9 °F /  21.6 °C 56.34 °F /  13.5 °C 30.22in /  1023.2hPa ENE 1mph /  1.6km/h 10mph /  16.1km/h 60% 0in /  0mm 51.00 W/m2
16:55 71.1 °F /  21.7 °C 56.06 °F /  13.4 °C 30.22in /  1023.2hPa ENE 3mph /  4.8km/h 10mph /  16.1km/h 59% 0in /  0mm 53.00 W/m2
17:00 71.2 °F /  21.8 °C 56.15 °F /  13.4 °C 30.22in /  1023.2hPa East 1mph /  1.6km/h 10mph /  16.1km/h 59% 0in /  0mm 49.00 W/m2
17:05 71.4 °F /  21.9 °C 56.81 °F /  13.8 °C 30.22in /  1023.2hPa ENE 3mph /  4.8km/h 10mph /  16.1km/h 60% 0in /  0mm 47.00 W/m2
17:10 71.6 °F /  22 °C 57 °F /  13.9 °C 30.22in /  1023.2hPa ENE 1mph /  1.6km/h 10mph /  16.1km/h 60% 0in /  0mm 46.00 W/m2
17:15 71.6 °F /  22 °C 56.53 °F /  13.6 °C 30.22in /  1023.2hPa East 2mph /  3.2km/h 10mph /  16.1km/h 59% 0in /  0mm 44.00 W/m2
17:20 71.6 °F /  22 °C 56.53 °F /  13.6 °C 30.22in /  1023.2hPa NE 6mph /  9.7km/h 10mph /  16.1km/h 59% 0in /  0mm 42.00 W/m2
17:25 71.5 °F /  21.9 °C 56.9 °F /  13.8 °C 30.21in /  1022.9hPa Calm   10mph /  16.1km/h 60% 0in /  0mm 42.00 W/m2
17:30 71.5 °F /  21.9 °C 56.44 °F /  13.6 °C 30.21in /  1022.9hPa NE 1mph /  1.6km/h 10mph /  16.1km/h 59% 0in /  0mm 40.00 W/m2
17:35 71.5 °F /  21.9 °C 56.9 °F /  13.8 °C 30.21in /  1022.9hPa NE 2mph /  3.2km/h 6mph /  9.7km/h 60% 0in /  0mm 40.00 W/m2
17:40 71.5 °F /  21.9 °C 56.9 °F /  13.8 °C 30.21in /  1022.9hPa NE 5mph /  8km/h 6mph /  9.7km/h 60% 0in /  0mm 40.00 W/m2
17:45 71.4 °F /  21.9 °C 56.34 °F /  13.5 °C 30.21in /  1022.9hPa ENE 1mph /  1.6km/h 6mph /  9.7km/h 59% 0in /  0mm 39.00 W/m2
17:50 71.5 °F /  21.9 °C 55 °F /  12.8 °C 30.21in /  1022.9hPa East 4mph /  6.4km/h 9mph /  14.5km/h 56% 0in /  0mm 37.00 W/m2
17:55 71.4 °F /  21.9 °C 55.39 °F /  13 °C 30.21in /  1022.9hPa Calm   9mph /  14.5km/h 57% 0in /  0mm 37.00 W/m2
18:00 71.4 °F /  21.9 °C 55.87 °F /  13.3 °C 30.21in /  1022.9hPa NE 4mph /  6.4km/h 9mph /  14.5km/h 58% 0in /  0mm 35.00 W/m2
18:05 71.4 °F /  21.9 °C 56.34 °F /  13.5 °C 30.21in /  1022.9hPa East 3mph /  4.8km/h 6mph /  9.7km/h 59% 0in /  0mm 35.00 W/m2
18:10 71.4 °F /  21.9 °C 56.34 °F /  13.5 °C 30.21in /  1022.9hPa NE 1mph /  1.6km/h 10mph /  16.1km/h 59% 0in /  0mm 39.00 W/m2
18:15 71.3 °F /  21.8 °C 55.78 °F /  13.2 °C 30.21in /  1022.9hPa East 4mph /  6.4km/h 11mph /  17.7km/h 58% 0in /  0mm 33.00 W/m2
18:20 71.2 °F /  21.8 °C 56.15 °F /  13.4 °C 30.21in /  1022.9hPa NE 7mph /  11.3km/h 11mph /  17.7km/h 59% 0in /  0mm 30.00 W/m2
18:25 71.1 °F /  21.7 °C 55.59 °F /  13.1 °C 30.21in /  1022.9hPa NE 3mph /  4.8km/h 13mph /  20.9km/h 58% 0in /  0mm 30.00 W/m2
18:30 70.9 °F /  21.6 °C 55.87 °F /  13.3 °C 30.21in /  1022.9hPa ENE 1mph /  1.6km/h 13mph /  20.9km/h 59% 0in /  0mm 28.00 W/m2
18:35 70.8 °F /  21.6 °C 55.78 °F /  13.2 °C 30.21in /  1022.9hPa East 3mph /  4.8km/h 9mph /  14.5km/h 59% 0in /  0mm 25.00 W/m2
18:40 70.6 °F /  21.4 °C 55.12 °F /  12.8 °C 30.21in /  1022.9hPa NNE 9mph /  14.5km/h 11mph /  17.7km/h 58% 0in /  0mm 23.00 W/m2
18:45 70.4 °F /  21.3 °C 55.4 °F /  13 °C 30.21in /  1022.9hPa Calm   11mph /  17.7km/h 59% 0in /  0mm 21.00 W/m2
18:50 70.3 °F /  21.3 °C 55.31 °F /  13 °C 30.22in /  1023.2hPa East 4mph /  6.4km/h 11mph /  17.7km/h 59% 0in /  0mm 19.00 W/m2
18:55 70.1 °F /  21.2 °C 55.12 °F /  12.8 °C 30.22in /  1023.2hPa ENE 4mph /  6.4km/h 11mph /  17.7km/h 59% 0in /  0mm 19.00 W/m2
19:00 69.9 °F /  21.1 °C 55.4 °F /  13 °C 30.22in /  1023.2hPa East 5mph /  8km/h 11mph /  17.7km/h 60% 0in /  0mm 21.00 W/m2
19:05 69.7 °F /  20.9 °C 55.21 °F /  12.9 °C 30.22in /  1023.2hPa East 1mph /  1.6km/h 7mph /  11.3km/h 60% 0in /  0mm 18.00 W/m2
19:10 69.6 °F /  20.9 °C 55.57 °F /  13.1 °C 30.22in /  1023.2hPa Calm   7mph /  11.3km/h 61% 0in /  0mm 12.00 W/m2
19:15 69.5 °F /  20.8 °C 55.93 °F /  13.3 °C 30.22in /  1023.2hPa Calm   7mph /  11.3km/h 62% 0in /  0mm 9.00 W/m2
19:20 69.3 °F /  20.7 °C 55.74 °F /  13.2 °C 30.22in /  1023.2hPa ENE 1mph /  1.6km/h 10mph /  16.1km/h 62% 0in /  0mm 7.00 W/m2
19:25 69 °F /  20.6 °C 55.89 °F /  13.3 °C 30.22in /  1023.2hPa NE 1mph /  1.6km/h 10mph /  16.1km/h 63% 0in /  0mm 5.00 W/m2
19:30 68.7 °F /  20.4 °C 55.61 °F /  13.1 °C 30.22in /  1023.2hPa Calm   10mph /  16.1km/h 63% 0in /  0mm 0.00 W/m2
19:35 68.5 °F /  20.3 °C 55.86 °F /  13.3 °C 30.23in /  1023.6hPa ENE 2mph /  3.2km/h 5mph /  8km/h 64% 0in /  0mm 0.00 W/m2
19:40 68.2 °F /  20.1 °C 56 °F /  13.3 °C 30.23in /  1023.6hPa Calm   5mph /  8km/h 65% 0in /  0mm 0.00 W/m2
19:45 68 °F /  20 °C 56.23 °F /  13.5 °C 30.23in /  1023.6hPa Calm   5mph /  8km/h 66% 0in /  0mm 0.00 W/m2
19:50 67.7 °F /  19.8 °C 56.36 °F /  13.5 °C 30.23in /  1023.6hPa East 3mph /  4.8km/h 5mph /  8km/h 67% 0in /  0mm 0.00 W/m2
19:55 67.4 °F /  19.7 °C 55.66 °F /  13.1 °C 30.23in /  1023.6hPa ENE 1mph /  1.6km/h 9mph /  14.5km/h 66% 0in /  0mm 0.00 W/m2
20:00 67.1 °F /  19.5 °C 55.79 °F /  13.2 °C 30.23in /  1023.6hPa Calm   9mph /  14.5km/h 67% 0in /  0mm 0.00 W/m2
20:05 66.9 °F /  19.4 °C 56.01 °F /  13.3 °C 30.23in /  1023.6hPa ENE 2mph /  3.2km/h 7mph /  11.3km/h 68% 0in /  0mm 0.00 W/m2
20:10 66.7 °F /  19.3 °C 55.82 °F /  13.2 °C 30.23in /  1023.6hPa Calm   7mph /  11.3km/h 68% 0in /  0mm 0.00 W/m2
20:15 66.5 °F /  19.2 °C 55.63 °F /  13.1 °C 30.23in /  1023.6hPa East 4mph /  6.4km/h 7mph /  11.3km/h 68% 0in /  0mm 0.00 W/m2
20:20 66.3 °F /  19.1 °C 55.84 °F /  13.2 °C 30.23in /  1023.6hPa ENE 1mph /  1.6km/h 7mph /  11.3km/h 69% 0in /  0mm 0.00 W/m2
20:25 66.2 °F /  19 °C 55.74 °F /  13.2 °C 30.24in /  1023.9hPa Calm   7mph /  11.3km/h 69% 0in /  0mm 0.00 W/m2
20:30 66 °F /  18.9 °C 55.55 °F /  13.1 °C 30.25in /  1024.3hPa Calm   7mph /  11.3km/h 69% 0in /  0mm 0.00 W/m2
20:35 65.8 °F /  18.8 °C 55.76 °F /  13.2 °C 30.25in /  1024.3hPa ENE 2mph /  3.2km/h 2mph /  3.2km/h 70% 0in /  0mm 0.00 W/m2
20:40 65.6 °F /  18.7 °C 55.95 °F /  13.3 °C 30.25in /  1024.3hPa Calm   3mph /  4.8km/h 71% 0in /  0mm 0.00 W/m2
20:45 65.4 °F /  18.6 °C 55.76 °F /  13.2 °C 30.25in /  1024.3hPa NE 4mph /  6.4km/h 4mph /  6.4km/h 71% 0in /  0mm 0.00 W/m2
20:50 65.1 °F /  18.4 °C 55.48 °F /  13 °C 30.25in /  1024.3hPa Calm   6mph /  9.7km/h 71% 0in /  0mm 0.00 W/m2
20:55 65 °F /  18.3 °C 55.76 °F /  13.2 °C 30.25in /  1024.3hPa ENE 2mph /  3.2km/h 6mph /  9.7km/h 72% 0in /  0mm 0.00 W/m2
21:00 64.9 °F /  18.3 °C 55.67 °F /  13.2 °C 30.25in /  1024.3hPa Calm   6mph /  9.7km/h 72% 0in /  0mm 0.00 W/m2
21:05 64.8 °F /  18.2 °C 55.57 °F /  13.1 °C 30.26in /  1024.6hPa Calm   4mph /  6.4km/h 72% 0in /  0mm 0.00 W/m2
21:10 64.6 °F /  18.1 °C 55.76 °F /  13.2 °C 30.25in /  1024.3hPa ENE 2mph /  3.2km/h 11mph /  17.7km/h 73% 0in /  0mm 0.00 W/m2
21:15 64.4 °F /  18 °C 55.57 °F /  13.1 °C 30.25in /  1024.3hPa ESE 1mph /  1.6km/h 11mph /  17.7km/h 73% 0in /  0mm 0.00 W/m2
21:20 64.2 °F /  17.9 °C 55.38 °F /  13 °C 30.25in /  1024.3hPa NE 3mph /  4.8km/h 11mph /  17.7km/h 73% 0in /  0mm 0.00 W/m2
21:25 64 °F /  17.8 °C 55.18 °F /  12.9 °C 30.25in /  1024.3hPa Calm   11mph /  17.7km/h 73% 0in /  0mm 0.00 W/m2
21:30 63.9 °F /  17.7 °C 55.09 °F /  12.8 °C 30.25in /  1024.3hPa Calm   11mph /  17.7km/h 73% 0in /  0mm 0.00 W/m2
21:35 63.7 °F /  17.6 °C 55.27 °F /  12.9 °C 30.26in /  1024.6hPa Calm   3mph /  4.8km/h 74% 0in /  0mm 0.00 W/m2
21:40 63.5 °F /  17.5 °C 55.44 °F /  13 °C 30.26in /  1024.6hPa Calm   3mph /  4.8km/h 75% 0in /  0mm 0.00 W/m2
21:45 63.3 °F /  17.4 °C 55.62 °F /  13.1 °C 30.26in /  1024.6hPa Calm   5mph /  8km/h 76% 0in /  0mm 0.00 W/m2
21:50 63.1 °F /  17.3 °C 55.42 °F /  13 °C 30.26in /  1024.6hPa Calm   5mph /  8km/h 76% 0in /  0mm 0.00 W/m2
21:55 63 °F /  17.2 °C 55.69 °F /  13.2 °C 30.26in /  1024.6hPa ENE 2mph /  3.2km/h 5mph /  8km/h 77% 0in /  0mm 0.00 W/m2
22:00 62.7 °F /  17.1 °C 55.04 °F /  12.8 °C 30.25in /  1024.3hPa Calm   5mph /  8km/h 76% 0in /  0mm 0.00 W/m2
22:05 62.5 °F /  16.9 °C 54.48 °F /  12.5 °C 30.25in /  1024.3hPa ENE 2mph /  3.2km/h 5mph /  8km/h 75% 0in /  0mm 0.00 W/m2
22:10 62.3 °F /  16.8 °C 53.92 °F /  12.2 °C 30.25in /  1024.3hPa Calm   5mph /  8km/h 74% 0in /  0mm 0.00 W/m2
22:15 62.1 °F /  16.7 °C 53.35 °F /  11.9 °C 30.25in /  1024.3hPa Calm   7mph /  11.3km/h 73% 0in /  0mm 0.00 W/m2
22:20 61.9 °F /  16.6 °C 53.16 °F /  11.8 °C 30.25in /  1024.3hPa Calm   7mph /  11.3km/h 73% 0in /  0mm 0.00 W/m2
22:25 61.7 °F /  16.5 °C 52.59 °F /  11.4 °C 30.26in /  1024.6hPa Calm   7mph /  11.3km/h 72% 0in /  0mm 0.00 W/m2
22:30 61.5 °F /  16.4 °C 52.02 °F /  11.1 °C 30.25in /  1024.3hPa Calm   7mph /  11.3km/h 71% 0in /  0mm 0.00 W/m2
22:35 61.4 °F /  16.3 °C 51.54 °F /  10.9 °C 30.26in /  1024.6hPa Calm   5mph /  8km/h 70% 0in /  0mm 0.00 W/m2
22:40 61.2 °F /  16.2 °C 51.35 °F /  10.8 °C 30.26in /  1024.6hPa NE 3mph /  4.8km/h 5mph /  8km/h 70% 0in /  0mm 0.00 W/m2
22:45 61.1 °F /  16.2 °C 50.87 °F /  10.5 °C 30.26in /  1024.6hPa Calm   5mph /  8km/h 69% 0in /  0mm 0.00 W/m2
22:50 61 °F /  16.1 °C 50.77 °F /  10.4 °C 30.26in /  1024.6hPa NE 3mph /  4.8km/h 5mph /  8km/h 69% 0in /  0mm 0.00 W/m2
22:55 60.9 °F /  16.1 °C 51.06 °F /  10.6 °C 30.25in /  1024.3hPa Calm   5mph /  8km/h 70% 0in /  0mm 0.00 W/m2
23:00 60.8 °F /  16 °C 50.97 °F /  10.5 °C 30.26in /  1024.6hPa Calm   5mph /  8km/h 70% 0in /  0mm 0.00 W/m2
23:05 60.7 °F /  15.9 °C 51.25 °F /  10.7 °C 30.26in /  1024.6hPa Calm     71% 0in /  0mm 0.00 W/m2
23:10 60.5 °F /  15.8 °C 51.06 °F /  10.6 °C 30.26in /  1024.6hPa Calm     71% 0in /  0mm 0.00 W/m2
23:15 60.4 °F /  15.8 °C 51.34 °F /  10.7 °C 30.25in /  1024.3hPa Calm     72% 0in /  0mm 0.00 W/m2
23:20 60.2 °F /  15.7 °C 51.15 °F /  10.6 °C 30.25in /  1024.3hPa Calm     72% 0in /  0mm 0.00 W/m2
23:25 60 °F /  15.6 °C 50.96 °F /  10.5 °C 30.25in /  1024.3hPa Calm     72% 0in /  0mm 0.00 W/m2
23:30 59.8 °F /  15.4 °C 50.77 °F /  10.4 °C 30.25in /  1024.3hPa Calm   2mph /  3.2km/h 72% 0in /  0mm 0.00 W/m2
23:35 59.7 °F /  15.4 °C 50.67 °F /  10.4 °C 30.25in /  1024.3hPa Calm   1mph /  1.6km/h 72% 0in /  0mm 0.00 W/m2
23:40 59.5 °F /  15.3 °C 50.48 °F /  10.3 °C 30.24in /  1023.9hPa Calm   1mph /  1.6km/h 72% 0in /  0mm 0.00 W/m2
23:45 59.4 °F /  15.2 °C 50.38 °F /  10.2 °C 30.24in /  1023.9hPa Calm   2mph /  3.2km/h 72% 0in /  0mm 0.00 W/m2
23:50 59.2 °F /  15.1 °C 50.19 °F /  10.1 °C 30.24in /  1023.9hPa Calm   2mph /  3.2km/h 72% 0in /  0mm 0.00 W/m2
23:55 59.1 °F /  15.1 °C 50.09 °F /  10.1 °C 30.24in /  1023.9hPa Calm   2mph /  3.2km/h 72% 0in /  0mm 0.00 W/m2
Grace C. Lehan Memorial Weather Station
Compliments of Weather Underground - 2 mb